sensor_id;sensor_type;location;lat;lon;timestamp;temperature;humidity
43949;DHT22;29429;51.074;13.764;2022-09-09T00:01:31;13.80;99.90
43949;DHT22;29429;51.074;13.764;2022-09-09T00:07:34;13.80;99.90
43949;DHT22;29429;51.074;13.764;2022-09-09T00:10:29;13.80;99.90
43949;DHT22;29429;51.074;13.764;2022-09-09T00:16:19;13.80;99.90
43949;DHT22;29429;51.074;13.764;2022-09-09T00:18:58;13.80;99.90
43949;DHT22;29429;51.074;13.764;2022-09-09T00:24:40;13.80;99.90
43949;DHT22;29429;51.074;13.764;2022-09-09T00:27:33;13.80;99.90
43949;DHT22;29429;51.074;13.764;2022-09-09T00:30:17;13.80;99.90
43949;DHT22;29429;51.074;13.764;2022-09-09T00:32:54;13.70;99.90
43949;DHT22;29429;51.074;13.764;2022-09-09T00:35:38;13.70;99.90
43949;DHT22;29429;51.074;13.764;2022-09-09T00:38:28;13.70;99.90
43949;DHT22;29429;51.074;13.764;2022-09-09T00:41:17;13.70;99.90
43949;DHT22;29429;51.074;13.764;2022-09-09T00:56:35;13.60;99.90
43949;DHT22;29429;51.074;13.764;2022-09-09T01:02:18;13.50;99.90
43949;DHT22;29429;51.074;13.764;2022-09-09T01:04:52;13.50;99.90
43949;DHT22;29429;51.074;13.764;2022-09-09T01:07:19;13.40;99.90
43949;DHT22;29429;51.074;13.764;2022-09-09T01:10:00;13.40;99.90
43949;DHT22;29429;51.074;13.764;2022-09-09T01:12:43;13.30;99.90
43949;DHT22;29429;51.074;13.764;2022-09-09T01:15:27;13.30;99.90
43949;DHT22;29429;51.074;13.764;2022-09-09T01:20:52;13.30;99.90
43949;DHT22;29429;51.074;13.764;2022-09-09T01:27:17;13.30;99.90
43949;DHT22;29429;51.074;13.764;2022-09-09T01:29:46;13.20;99.90
43949;DHT22;29429;51.074;13.764;2022-09-09T01:38:07;13.10;99.90
43949;DHT22;29429;51.074;13.764;2022-09-09T01:40:34;13.20;99.90
43949;DHT22;29429;51.074;13.764;2022-09-09T01:43:02;13.10;99.90
43949;DHT22;29429;51.074;13.764;2022-09-09T01:45:31;13.10;99.90
43949;DHT22;29429;51.074;13.764;2022-09-09T01:47:58;13.10;99.90
43949;DHT22;29429;51.074;13.764;2022-09-09T01:50:51;13.10;99.90
43949;DHT22;29429;51.074;13.764;2022-09-09T01:53:20;13.10;99.90
43949;DHT22;29429;51.074;13.764;2022-09-09T01:55:56;13.10;99.90
43949;DHT22;29429;51.074;13.764;2022-09-09T02:07:34;12.90;99.90
43949;DHT22;29429;51.074;13.764;2022-09-09T02:10:29;12.90;99.90
43949;DHT22;29429;51.074;13.764;2022-09-09T02:13:15;12.90;99.90
43949;DHT22;29429;51.074;13.764;2022-09-09T02:15:55;12.90;99.90
43949;DHT22;29429;51.074;13.764;2022-09-09T02:18:48;12.80;99.90
43949;DHT22;29429;51.074;13.764;2022-09-09T02:21:30;12.80;99.90
43949;DHT22;29429;51.074;13.764;2022-09-09T02:24:02;12.80;99.90
43949;DHT22;29429;51.074;13.764;2022-09-09T02:26:40;12.80;99.90
43949;DHT22;29429;51.074;13.764;2022-09-09T02:29:15;12.80;99.90
43949;DHT22;29429;51.074;13.764;2022-09-09T02:31:47;12.80;99.90
43949;DHT22;29429;51.074;13.764;2022-09-09T02:34:22;12.80;99.90
43949;DHT22;29429;51.074;13.764;2022-09-09T02:36:53;12.70;99.90
43949;DHT22;29429;51.074;13.764;2022-09-09T02:39:24;12.70;99.90
43949;DHT22;29429;51.074;13.764;2022-09-09T02:41:51;12.70;99.90
43949;DHT22;29429;51.074;13.764;2022-09-09T02:44:26;12.70;99.90
43949;DHT22;29429;51.074;13.764;2022-09-09T02:50:20;12.70;99.90
43949;DHT22;29429;51.074;13.764;2022-09-09T02:53:14;12.70;99.90
43949;DHT22;29429;51.074;13.764;2022-09-09T02:55:52;12.70;99.90
43949;DHT22;29429;51.074;13.764;2022-09-09T02:58:22;12.70;99.90
43949;DHT22;29429;51.074;13.764;2022-09-09T03:00:58;12.80;99.90
43949;DHT22;29429;51.074;13.764;2022-09-09T03:03:28;12.80;99.90
43949;DHT22;29429;51.074;13.764;2022-09-09T03:05:58;12.70;99.90
43949;DHT22;29429;51.074;13.764;2022-09-09T03:08:26;12.80;99.90
43949;DHT22;29429;51.074;13.764;2022-09-09T03:10:58;12.70;99.90
43949;DHT22;29429;51.074;13.764;2022-09-09T03:13:30;12.70;99.90
43949;DHT22;29429;51.074;13.764;2022-09-09T03:15:57;12.70;99.90
43949;DHT22;29429;51.074;13.764;2022-09-09T03:18:25;12.70;99.90
43949;DHT22;29429;51.074;13.764;2022-09-09T03:20:53;12.70;99.90
43949;DHT22;29429;51.074;13.764;2022-09-09T03:23:21;12.70;99.90
43949;DHT22;29429;51.074;13.764;2022-09-09T03:25:49;12.70;99.90
43949;DHT22;29429;51.074;13.764;2022-09-09T03:28:24;12.70;99.90
43949;DHT22;29429;51.074;13.764;2022-09-09T03:31:03;12.70;99.90
43949;DHT22;29429;51.074;13.764;2022-09-09T03:33:35;12.70;99.90
43949;DHT22;29429;51.074;13.764;2022-09-09T03:36:05;12.70;99.90
43949;DHT22;29429;51.074;13.764;2022-09-09T03:38:34;12.70;99.90
43949;DHT22;29429;51.074;13.764;2022-09-09T03:41:01;12.70;99.90
43949;DHT22;29429;51.074;13.764;2022-09-09T03:43:29;12.80;99.90
43949;DHT22;29429;51.074;13.764;2022-09-09T03:45:57;12.70;99.90
43949;DHT22;29429;51.074;13.764;2022-09-09T03:48:26;12.70;99.90
43949;DHT22;29429;51.074;13.764;2022-09-09T03:50:55;12.70;99.90
43949;DHT22;29429;51.074;13.764;2022-09-09T03:53:24;12.70;99.90
43949;DHT22;29429;51.074;13.764;2022-09-09T03:55:53;12.60;99.90
43949;DHT22;29429;51.074;13.764;2022-09-09T03:58:25;12.80;99.90
43949;DHT22;29429;51.074;13.764;2022-09-09T04:01:03;12.70;99.90
43949;DHT22;29429;51.074;13.764;2022-09-09T04:03:33;12.60;99.90
43949;DHT22;29429;51.074;13.764;2022-09-09T04:06:01;12.60;99.90
43949;DHT22;29429;51.074;13.764;2022-09-09T04:08:31;12.70;99.90
43949;DHT22;29429;51.074;13.764;2022-09-09T04:10:59;12.60;99.90
43949;DHT22;29429;51.074;13.764;2022-09-09T04:13:29;12.50;99.90
43949;DHT22;29429;51.074;13.764;2022-09-09T04:15:59;12.60;99.90
43949;DHT22;29429;51.074;13.764;2022-09-09T04:18:27;12.60;99.90
43949;DHT22;29429;51.074;13.764;2022-09-09T04:20:56;12.60;99.90
43949;DHT22;29429;51.074;13.764;2022-09-09T04:23:27;12.60;99.90
43949;DHT22;29429;51.074;13.764;2022-09-09T04:25:59;12.60;99.90
43949;DHT22;29429;51.074;13.764;2022-09-09T04:28:33;12.60;99.90
43949;DHT22;29429;51.074;13.764;2022-09-09T04:31:10;12.60;99.90
43949;DHT22;29429;51.074;13.764;2022-09-09T04:33:41;12.60;99.90
43949;DHT22;29429;51.074;13.764;2022-09-09T04:36:09;12.70;99.90
43949;DHT22;29429;51.074;13.764;2022-09-09T04:38:37;12.70;99.90
43949;DHT22;29429;51.074;13.764;2022-09-09T04:41:05;12.80;99.90
43949;DHT22;29429;51.074;13.764;2022-09-09T04:43:35;12.80;99.90
43949;DHT22;29429;51.074;13.764;2022-09-09T04:46:04;12.90;99.90
43949;DHT22;29429;51.074;13.764;2022-09-09T04:48:33;12.90;99.90
43949;DHT22;29429;51.074;13.764;2022-09-09T04:51:03;13.00;99.90
43949;DHT22;29429;51.074;13.764;2022-09-09T04:53:32;13.00;99.90
43949;DHT22;29429;51.074;13.764;2022-09-09T04:56:21;12.90;99.90
43949;DHT22;29429;51.074;13.764;2022-09-09T04:58:54;13.00;99.90
43949;DHT22;29429;51.074;13.764;2022-09-09T05:01:27;13.10;99.90
43949;DHT22;29429;51.074;13.764;2022-09-09T05:04:02;13.10;99.90
43949;DHT22;29429;51.074;13.764;2022-09-09T05:06:32;13.20;99.90
43949;DHT22;29429;51.074;13.764;2022-09-09T05:09:00;13.30;99.90
43949;DHT22;29429;51.074;13.764;2022-09-09T05:11:31;13.30;99.90
43949;DHT22;29429;51.074;13.764;2022-09-09T05:14:14;13.40;99.90
43949;DHT22;29429;51.074;13.764;2022-09-09T05:16:41;13.50;99.90
43949;DHT22;29429;51.074;13.764;2022-09-09T05:19:11;13.50;99.90
43949;DHT22;29429;51.074;13.764;2022-09-09T05:21:43;13.60;99.90
43949;DHT22;29429;51.074;13.764;2022-09-09T05:24:11;13.60;99.90
43949;DHT22;29429;51.074;13.764;2022-09-09T05:26:39;13.60;99.90
43949;DHT22;29429;51.074;13.764;2022-09-09T05:29:07;13.70;99.90
43949;DHT22;29429;51.074;13.764;2022-09-09T05:31:34;13.70;99.90
43949;DHT22;29429;51.074;13.764;2022-09-09T05:34:06;13.80;99.90
43949;DHT22;29429;51.074;13.764;2022-09-09T05:36:33;13.90;99.90
43949;DHT22;29429;51.074;13.764;2022-09-09T05:39:00;13.90;99.90
43949;DHT22;29429;51.074;13.764;2022-09-09T05:41:37;13.90;99.90
43949;DHT22;29429;51.074;13.764;2022-09-09T05:44:07;14.00;99.90
43949;DHT22;29429;51.074;13.764;2022-09-09T05:46:37;14.10;99.90
43949;DHT22;29429;51.074;13.764;2022-09-09T05:49:04;14.10;99.90
43949;DHT22;29429;51.074;13.764;2022-09-09T05:51:33;14.20;99.90
43949;DHT22;29429;51.074;13.764;2022-09-09T05:54:06;14.30;99.90
43949;DHT22;29429;51.074;13.764;2022-09-09T05:56:36;14.40;99.90
43949;DHT22;29429;51.074;13.764;2022-09-09T05:59:08;14.60;99.90
43949;DHT22;29429;51.074;13.764;2022-09-09T06:01:40;14.70;99.90
43949;DHT22;29429;51.074;13.764;2022-09-09T06:04:21;14.90;99.90
43949;DHT22;29429;51.074;13.764;2022-09-09T06:06:49;14.90;99.90
43949;DHT22;29429;51.074;13.764;2022-09-09T06:09:18;15.20;99.90
43949;DHT22;29429;51.074;13.764;2022-09-09T06:11:45;15.10;99.90
43949;DHT22;29429;51.074;13.764;2022-09-09T06:14:14;15.20;99.90
43949;DHT22;29429;51.074;13.764;2022-09-09T06:16:44;15.30;99.90
43949;DHT22;29429;51.074;13.764;2022-09-09T06:19:22;15.50;99.90
43949;DHT22;29429;51.074;13.764;2022-09-09T06:21:55;15.60;99.90
43949;DHT22;29429;51.074;13.764;2022-09-09T06:24:22;15.60;99.90
43949;DHT22;29429;51.074;13.764;2022-09-09T06:26:49;15.60;99.90
43949;DHT22;29429;51.074;13.764;2022-09-09T06:29:21;15.70;99.90
43949;DHT22;29429;51.074;13.764;2022-09-09T06:31:49;15.70;99.90
43949;DHT22;29429;51.074;13.764;2022-09-09T06:34:21;15.70;99.90
43949;DHT22;29429;51.074;13.764;2022-09-09T06:36:56;15.70;99.90
43949;DHT22;29429;51.074;13.764;2022-09-09T06:39:29;15.70;99.90
43949;DHT22;29429;51.074;13.764;2022-09-09T06:42:00;15.80;99.90
43949;DHT22;29429;51.074;13.764;2022-09-09T06:44:49;15.60;99.90
43949;DHT22;29429;51.074;13.764;2022-09-09T06:47:23;15.60;99.90
43949;DHT22;29429;51.074;13.764;2022-09-09T06:49:51;15.60;99.90
43949;DHT22;29429;51.074;13.764;2022-09-09T06:52:19;15.60;99.90
43949;DHT22;29429;51.074;13.764;2022-09-09T06:54:46;15.70;99.90
43949;DHT22;29429;51.074;13.764;2022-09-09T06:57:15;15.90;99.90
43949;DHT22;29429;51.074;13.764;2022-09-09T07:00:06;16.10;99.90
43949;DHT22;29429;51.074;13.764;2022-09-09T07:02:34;16.30;99.90
43949;DHT22;29429;51.074;13.764;2022-09-09T07:05:06;16.50;99.90
43949;DHT22;29429;51.074;13.764;2022-09-09T07:07:34;16.80;99.90
43949;DHT22;29429;51.074;13.764;2022-09-09T07:10:03;17.10;99.90
43949;DHT22;29429;51.074;13.764;2022-09-09T07:12:30;17.30;99.90
43949;DHT22;29429;51.074;13.764;2022-09-09T07:15:02;17.40;99.90
43949;DHT22;29429;51.074;13.764;2022-09-09T07:17:30;17.50;99.90
43949;DHT22;29429;51.074;13.764;2022-09-09T07:19:59;17.60;99.90
43949;DHT22;29429;51.074;13.764;2022-09-09T07:22:27;17.70;99.90
43949;DHT22;29429;51.074;13.764;2022-09-09T07:24:55;17.80;99.90
43949;DHT22;29429;51.074;13.764;2022-09-09T07:27:23;18.00;99.90
43949;DHT22;29429;51.074;13.764;2022-09-09T07:29:50;18.30;99.90
43949;DHT22;29429;51.074;13.764;2022-09-09T07:32:20;18.30;99.90
43949;DHT22;29429;51.074;13.764;2022-09-09T07:34:47;18.40;99.90
43949;DHT22;29429;51.074;13.764;2022-09-09T07:37:16;18.40;99.90
43949;DHT22;29429;51.074;13.764;2022-09-09T07:39:45;18.40;99.90
43949;DHT22;29429;51.074;13.764;2022-09-09T07:42:12;18.40;99.90
43949;DHT22;29429;51.074;13.764;2022-09-09T07:44:40;18.50;99.90
43949;DHT22;29429;51.074;13.764;2022-09-09T07:47:13;18.30;99.90
43949;DHT22;29429;51.074;13.764;2022-09-09T07:49:45;18.50;99.90
43949;DHT22;29429;51.074;13.764;2022-09-09T07:52:16;18.50;99.90
43949;DHT22;29429;51.074;13.764;2022-09-09T07:54:49;18.50;99.90
43949;DHT22;29429;51.074;13.764;2022-09-09T07:57:17;18.50;99.90
43949;DHT22;29429;51.074;13.764;2022-09-09T07:59:46;18.50;99.90
43949;DHT22;29429;51.074;13.764;2022-09-09T08:02:13;18.50;99.90
43949;DHT22;29429;51.074;13.764;2022-09-09T08:04:41;18.60;99.90
43949;DHT22;29429;51.074;13.764;2022-09-09T08:07:11;18.70;99.90
43949;DHT22;29429;51.074;13.764;2022-09-09T08:09:44;18.90;99.90
43949;DHT22;29429;51.074;13.764;2022-09-09T08:12:18;19.10;99.90
43949;DHT22;29429;51.074;13.764;2022-09-09T08:14:45;19.30;99.90
43949;DHT22;29429;51.074;13.764;2022-09-09T08:17:12;19.50;99.90
43949;DHT22;29429;51.074;13.764;2022-09-09T08:19:39;19.70;99.90
43949;DHT22;29429;51.074;13.764;2022-09-09T08:22:12;19.80;99.90
43949;DHT22;29429;51.074;13.764;2022-09-09T08:24:39;20.00;99.90
43949;DHT22;29429;51.074;13.764;2022-09-09T08:27:08;20.00;99.90
43949;DHT22;29429;51.074;13.764;2022-09-09T08:29:37;20.10;99.90
43949;DHT22;29429;51.074;13.764;2022-09-09T08:32:05;20.00;99.90
43949;DHT22;29429;51.074;13.764;2022-09-09T08:34:33;20.00;99.90
43949;DHT22;29429;51.074;13.764;2022-09-09T08:37:04;20.10;99.90
43949;DHT22;29429;51.074;13.764;2022-09-09T08:39:36;20.20;99.90
43949;DHT22;29429;51.074;13.764;2022-09-09T08:45:25;20.50;99.90
43949;DHT22;29429;51.074;13.764;2022-09-09T08:51:10;20.70;99.90
43949;DHT22;29429;51.074;13.764;2022-09-09T08:53:45;20.80;99.90
43949;DHT22;29429;51.074;13.764;2022-09-09T08:56:26;20.90;99.90
43949;DHT22;29429;51.074;13.764;2022-09-09T08:59:00;21.00;99.90
43949;DHT22;29429;51.074;13.764;2022-09-09T09:16:53;21.80;99.90
43949;DHT22;29429;51.074;13.764;2022-09-09T09:19:22;21.60;99.90
43949;DHT22;29429;51.074;13.764;2022-09-09T09:22:20;21.50;99.90
43949;DHT22;29429;51.074;13.764;2022-09-09T09:25:12;21.30;99.90
43949;DHT22;29429;51.074;13.764;2022-09-09T09:28:11;21.10;99.90
43949;DHT22;29429;51.074;13.764;2022-09-09T09:31:04;20.90;99.90
43949;DHT22;29429;51.074;13.764;2022-09-09T09:36:13;20.40;99.90
43949;DHT22;29429;51.074;13.764;2022-09-09T09:38:58;20.10;99.90
43949;DHT22;29429;51.074;13.764;2022-09-09T09:41:48;20.00;99.90
43949;DHT22;29429;51.074;13.764;2022-09-09T09:44:28;20.00;99.90
43949;DHT22;29429;51.074;13.764;2022-09-09T09:47:22;20.20;99.90
43949;DHT22;29429;51.074;13.764;2022-09-09T09:50:17;20.30;99.90
43949;DHT22;29429;51.074;13.764;2022-09-09T09:53:02;20.40;99.90
43949;DHT22;29429;51.074;13.764;2022-09-09T09:55:58;20.70;99.90
43949;DHT22;29429;51.074;13.764;2022-09-09T09:58:31;20.90;99.90
43949;DHT22;29429;51.074;13.764;2022-09-09T10:01:01;21.00;99.90
43949;DHT22;29429;51.074;13.764;2022-09-09T10:03:32;20.90;99.90
43949;DHT22;29429;51.074;13.764;2022-09-09T10:06:06;21.10;99.90
43949;DHT22;29429;51.074;13.764;2022-09-09T10:08:43;21.10;99.90
43949;DHT22;29429;51.074;13.764;2022-09-09T10:11:40;21.00;99.90
43949;DHT22;29429;51.074;13.764;2022-09-09T10:20:41;20.80;99.90
43949;DHT22;29429;51.074;13.764;2022-09-09T10:23:29;20.90;99.90
43949;DHT22;29429;51.074;13.764;2022-09-09T10:26:28;20.70;99.90
43949;DHT22;29429;51.074;13.764;2022-09-09T10:35:04;20.90;99.90
43949;DHT22;29429;51.074;13.764;2022-09-09T10:38:03;20.90;99.90
43949;DHT22;29429;51.074;13.764;2022-09-09T10:43:58;20.90;99.90
43949;DHT22;29429;51.074;13.764;2022-09-09T10:55:51;21.00;99.90
43949;DHT22;29429;51.074;13.764;2022-09-09T10:58:48;21.10;99.90
43949;DHT22;29429;51.074;13.764;2022-09-09T11:01:23;21.10;99.90
43949;DHT22;29429;51.074;13.764;2022-09-09T11:04:08;21.20;99.90
43949;DHT22;29429;51.074;13.764;2022-09-09T11:06:48;21.30;99.90
43949;DHT22;29429;51.074;13.764;2022-09-09T11:09:23;21.30;99.90
43949;DHT22;29429;51.074;13.764;2022-09-09T11:11:58;21.40;99.90
43949;DHT22;29429;51.074;13.764;2022-09-09T11:14:37;21.40;99.90
43949;DHT22;29429;51.074;13.764;2022-09-09T11:17:18;21.30;99.90
43949;DHT22;29429;51.074;13.764;2022-09-09T11:19:53;21.20;99.90
43949;DHT22;29429;51.074;13.764;2022-09-09T11:23:01;21.10;99.90
43949;DHT22;29429;51.074;13.764;2022-09-09T11:25:36;21.10;99.90
43949;DHT22;29429;51.074;13.764;2022-09-09T11:40:14;21.20;99.90
43949;DHT22;29429;51.074;13.764;2022-09-09T11:42:42;21.40;99.90
43949;DHT22;29429;51.074;13.764;2022-09-09T11:45:30;21.70;99.90
43949;DHT22;29429;51.074;13.764;2022-09-09T11:48:03;21.90;99.90
43949;DHT22;29429;51.074;13.764;2022-09-09T11:50:37;22.10;99.90
43949;DHT22;29429;51.074;13.764;2022-09-09T11:53:24;22.20;99.90
43949;DHT22;29429;51.074;13.764;2022-09-09T11:56:12;22.30;99.90
43949;DHT22;29429;51.074;13.764;2022-09-09T11:59:16;22.30;99.90
43949;DHT22;29429;51.074;13.764;2022-09-09T12:04:33;22.30;99.90
43949;DHT22;29429;51.074;13.764;2022-09-09T12:10:29;22.20;99.90
43949;DHT22;29429;51.074;13.764;2022-09-09T12:13:18;22.30;99.90
43949;DHT22;29429;51.074;13.764;2022-09-09T12:15:57;22.40;99.90
43949;DHT22;29429;51.074;13.764;2022-09-09T12:18:37;22.50;99.90
43949;DHT22;29429;51.074;13.764;2022-09-09T12:21:58;22.40;99.90
43949;DHT22;29429;51.074;13.764;2022-09-09T12:24:35;22.20;99.90
43949;DHT22;29429;51.074;13.764;2022-09-09T12:27:22;22.00;99.90
43949;DHT22;29429;51.074;13.764;2022-09-09T12:30:15;21.90;99.90
43949;DHT22;29429;51.074;13.764;2022-09-09T12:32:43;21.70;99.90
43949;DHT22;29429;51.074;13.764;2022-09-09T12:37:58;21.50;99.90
43949;DHT22;29429;51.074;13.764;2022-09-09T12:40:32;21.50;99.90
43949;DHT22;29429;51.074;13.764;2022-09-09T12:43:20;21.60;99.90
43949;DHT22;29429;51.074;13.764;2022-09-09T12:45:49;21.70;99.90
43949;DHT22;29429;51.074;13.764;2022-09-09T12:48:34;22.00;99.90
43949;DHT22;29429;51.074;13.764;2022-09-09T12:51:15;22.30;99.90
43949;DHT22;29429;51.074;13.764;2022-09-09T12:53:45;22.40;99.90
43949;DHT22;29429;51.074;13.764;2022-09-09T12:56:21;22.50;99.90
43949;DHT22;29429;51.074;13.764;2022-09-09T12:58:54;22.60;99.90
43949;DHT22;29429;51.074;13.764;2022-09-09T13:01:32;22.80;99.90
43949;DHT22;29429;51.074;13.764;2022-09-09T13:04:02;22.90;99.90
43949;DHT22;29429;51.074;13.764;2022-09-09T13:06:32;22.90;99.90
43949;DHT22;29429;51.074;13.764;2022-09-09T13:09:01;22.90;99.90
43949;DHT22;29429;51.074;13.764;2022-09-09T13:11:41;22.80;99.90
43949;DHT22;29429;51.074;13.764;2022-09-09T13:14:29;22.50;99.90
43949;DHT22;29429;51.074;13.764;2022-09-09T13:17:03;22.30;99.90
43949;DHT22;29429;51.074;13.764;2022-09-09T13:19:36;22.10;99.90
43949;DHT22;29429;51.074;13.764;2022-09-09T13:22:21;21.90;99.90
43949;DHT22;29429;51.074;13.764;2022-09-09T13:25:29;21.80;99.90
43949;DHT22;29429;51.074;13.764;2022-09-09T13:28:02;21.80;99.90
43949;DHT22;29429;51.074;13.764;2022-09-09T13:30:33;21.80;99.90
43949;DHT22;29429;51.074;13.764;2022-09-09T13:35:56;21.90;99.90
43949;DHT22;29429;51.074;13.764;2022-09-09T13:38:30;21.90;99.90
43949;DHT22;29429;51.074;13.764;2022-09-09T13:43:43;21.90;99.90
43949;DHT22;29429;51.074;13.764;2022-09-09T13:51:41;21.90;99.90
43949;DHT22;29429;51.074;13.764;2022-09-09T13:54:16;22.00;99.90
43949;DHT22;29429;51.074;13.764;2022-09-09T13:56:46;22.00;99.90
43949;DHT22;29429;51.074;13.764;2022-09-09T13:59:18;22.10;99.90
43949;DHT22;29429;51.074;13.764;2022-09-09T14:01:47;22.10;99.90
43949;DHT22;29429;51.074;13.764;2022-09-09T14:04:15;22.10;99.90
43949;DHT22;29429;51.074;13.764;2022-09-09T14:06:43;22.20;99.90
43949;DHT22;29429;51.074;13.764;2022-09-09T14:09:18;22.10;99.90
43949;DHT22;29429;51.074;13.764;2022-09-09T14:11:48;22.10;99.90
43949;DHT22;29429;51.074;13.764;2022-09-09T14:14:15;22.10;99.90
43949;DHT22;29429;51.074;13.764;2022-09-09T14:16:42;22.20;99.90
43949;DHT22;29429;51.074;13.764;2022-09-09T14:19:09;22.20;99.90
43949;DHT22;29429;51.074;13.764;2022-09-09T14:21:36;22.30;99.90
43949;DHT22;29429;51.074;13.764;2022-09-09T14:24:03;22.40;99.90
43949;DHT22;29429;51.074;13.764;2022-09-09T14:26:31;22.50;99.90
43949;DHT22;29429;51.074;13.764;2022-09-09T14:28:58;22.60;99.90
43949;DHT22;29429;51.074;13.764;2022-09-09T14:31:26;22.80;99.90
43949;DHT22;29429;51.074;13.764;2022-09-09T14:33:53;22.90;99.90
43949;DHT22;29429;51.074;13.764;2022-09-09T14:36:20;23.00;99.90
43949;DHT22;29429;51.074;13.764;2022-09-09T14:38:47;23.00;99.90
43949;DHT22;29429;51.074;13.764;2022-09-09T14:41:17;23.10;99.90
43949;DHT22;29429;51.074;13.764;2022-09-09T14:43:45;23.00;99.90
43949;DHT22;29429;51.074;13.764;2022-09-09T14:46:15;22.90;99.90
43949;DHT22;29429;51.074;13.764;2022-09-09T14:48:44;22.90;99.90
43949;DHT22;29429;51.074;13.764;2022-09-09T14:51:20;22.80;99.90
43949;DHT22;29429;51.074;13.764;2022-09-09T14:53:52;22.70;99.90
43949;DHT22;29429;51.074;13.764;2022-09-09T14:56:26;22.70;99.90
43949;DHT22;29429;51.074;13.764;2022-09-09T14:58:57;22.60;99.90
43949;DHT22;29429;51.074;13.764;2022-09-09T15:01:28;22.40;99.90
43949;DHT22;29429;51.074;13.764;2022-09-09T15:04:01;22.30;99.90
43949;DHT22;29429;51.074;13.764;2022-09-09T15:06:32;22.20;99.90
43949;DHT22;29429;51.074;13.764;2022-09-09T15:09:01;22.00;99.90
43949;DHT22;29429;51.074;13.764;2022-09-09T15:11:30;21.90;99.90
43949;DHT22;29429;51.074;13.764;2022-09-09T15:14:05;21.80;99.90
43949;DHT22;29429;51.074;13.764;2022-09-09T15:16:34;21.80;99.90
43949;DHT22;29429;51.074;13.764;2022-09-09T15:19:02;21.90;99.90
43949;DHT22;29429;51.074;13.764;2022-09-09T15:21:34;21.90;99.90
43949;DHT22;29429;51.074;13.764;2022-09-09T15:24:05;21.90;99.90
43949;DHT22;29429;51.074;13.764;2022-09-09T15:26:35;21.90;99.90
43949;DHT22;29429;51.074;13.764;2022-09-09T15:29:06;21.90;99.90
43949;DHT22;29429;51.074;13.764;2022-09-09T15:31:35;21.80;99.90
43949;DHT22;29429;51.074;13.764;2022-09-09T15:34:07;21.90;99.90
43949;DHT22;29429;51.074;13.764;2022-09-09T15:36:38;22.00;99.90
43949;DHT22;29429;51.074;13.764;2022-09-09T15:39:15;22.10;99.90
43949;DHT22;29429;51.074;13.764;2022-09-09T15:41:44;22.10;99.90
43949;DHT22;29429;51.074;13.764;2022-09-09T15:44:13;22.20;99.90
43949;DHT22;29429;51.074;13.764;2022-09-09T15:49:21;22.20;99.90
43949;DHT22;29429;51.074;13.764;2022-09-09T15:51:57;22.20;99.90
43949;DHT22;29429;51.074;13.764;2022-09-09T15:54:26;22.10;99.90
43949;DHT22;29429;51.074;13.764;2022-09-09T15:56:58;22.00;99.90
43949;DHT22;29429;51.074;13.764;2022-09-09T15:59:29;21.90;99.90
43949;DHT22;29429;51.074;13.764;2022-09-09T16:01:58;21.80;99.90
43949;DHT22;29429;51.074;13.764;2022-09-09T16:04:27;21.60;99.90
43949;DHT22;29429;51.074;13.764;2022-09-09T16:07:02;21.50;99.90
43949;DHT22;29429;51.074;13.764;2022-09-09T16:09:32;21.40;99.90
43949;DHT22;29429;51.074;13.764;2022-09-09T16:12:02;21.30;99.90
43949;DHT22;29429;51.074;13.764;2022-09-09T16:14:33;21.20;99.90
43949;DHT22;29429;51.074;13.764;2022-09-09T16:17:03;21.10;99.90
43949;DHT22;29429;51.074;13.764;2022-09-09T16:19:32;21.00;99.90
43949;DHT22;29429;51.074;13.764;2022-09-09T16:21:59;20.90;99.90
43949;DHT22;29429;51.074;13.764;2022-09-09T16:24:26;20.80;99.90
43949;DHT22;29429;51.074;13.764;2022-09-09T16:26:54;20.70;99.90
43949;DHT22;29429;51.074;13.764;2022-09-09T16:29:22;20.60;99.90
43949;DHT22;29429;51.074;13.764;2022-09-09T16:31:50;20.50;99.90
43949;DHT22;29429;51.074;13.764;2022-09-09T16:34:18;20.50;99.90
43949;DHT22;29429;51.074;13.764;2022-09-09T16:36:46;20.40;99.90
43949;DHT22;29429;51.074;13.764;2022-09-09T16:39:17;20.40;99.90
43949;DHT22;29429;51.074;13.764;2022-09-09T16:41:46;20.40;99.90
43949;DHT22;29429;51.074;13.764;2022-09-09T16:44:16;20.30;99.90
43949;DHT22;29429;51.074;13.764;2022-09-09T16:46:46;20.30;99.90
43949;DHT22;29429;51.074;13.764;2022-09-09T16:49:16;20.30;99.90
43949;DHT22;29429;51.074;13.764;2022-09-09T16:51:48;20.30;99.90
43949;DHT22;29429;51.074;13.764;2022-09-09T16:54:19;20.30;99.90
43949;DHT22;29429;51.074;13.764;2022-09-09T16:56:47;20.40;99.90
43949;DHT22;29429;51.074;13.764;2022-09-09T16:59:16;20.30;99.90
43949;DHT22;29429;51.074;13.764;2022-09-09T17:01:46;20.40;99.90
43949;DHT22;29429;51.074;13.764;2022-09-09T17:04:20;20.40;99.90
43949;DHT22;29429;51.074;13.764;2022-09-09T17:06:52;20.40;99.90
43949;DHT22;29429;51.074;13.764;2022-09-09T17:09:21;20.30;99.90
43949;DHT22;29429;51.074;13.764;2022-09-09T17:11:50;20.30;99.90
43949;DHT22;29429;51.074;13.764;2022-09-09T17:14:19;20.30;99.90
43949;DHT22;29429;51.074;13.764;2022-09-09T17:16:47;20.10;99.90
43949;DHT22;29429;51.074;13.764;2022-09-09T17:19:14;20.00;99.90
43949;DHT22;29429;51.074;13.764;2022-09-09T17:21:42;19.80;99.90
43949;DHT22;29429;51.074;13.764;2022-09-09T17:24:29;19.70;99.90
43949;DHT22;29429;51.074;13.764;2022-09-09T17:26:57;19.50;99.90
43949;DHT22;29429;51.074;13.764;2022-09-09T17:29:25;19.30;99.90
43949;DHT22;29429;51.074;13.764;2022-09-09T17:31:52;19.20;99.90
43949;DHT22;29429;51.074;13.764;2022-09-09T17:34:21;19.00;99.90
43949;DHT22;29429;51.074;13.764;2022-09-09T17:36:49;18.80;99.90
43949;DHT22;29429;51.074;13.764;2022-09-09T17:39:16;18.70;99.90
43949;DHT22;29429;51.074;13.764;2022-09-09T17:41:43;18.60;99.90
43949;DHT22;29429;51.074;13.764;2022-09-09T17:44:10;18.50;99.90
43949;DHT22;29429;51.074;13.764;2022-09-09T17:46:40;18.30;99.90
43949;DHT22;29429;51.074;13.764;2022-09-09T17:49:11;18.20;99.90
43949;DHT22;29429;51.074;13.764;2022-09-09T17:51:41;18.10;99.90
43949;DHT22;29429;51.074;13.764;2022-09-09T17:54:12;18.00;99.90
43949;DHT22;29429;51.074;13.764;2022-09-09T17:56:41;17.90;99.90
43949;DHT22;29429;51.074;13.764;2022-09-09T17:59:10;17.90;99.90
43949;DHT22;29429;51.074;13.764;2022-09-09T18:01:44;17.80;99.90
43949;DHT22;29429;51.074;13.764;2022-09-09T18:04:14;17.70;99.90
43949;DHT22;29429;51.074;13.764;2022-09-09T18:06:44;17.80;99.90
43949;DHT22;29429;51.074;13.764;2022-09-09T18:09:20;17.60;99.90